Fisher Golf — FUGD — position and weather

sailwx.info

Track history (hours):
 
Tides and Currents Weather Stations Pressure Air Temp Water Temp Dewpoint Dewpoint Depression Visibility Wind Speed Wind Dir Waves Ship Positions

Fisher Golf

Last reported at 2015-May-18 02:29 UTC. Time now 2015-May-26 13:48 UTC.
Position N 46°38' W 003°39'.
Warning: this ship's position is 8 days out of date.

Length 20 m.

Type: Fishing. MMSI: 228239000.

Date/timePositionNaut miles runAvg speedWind from/ knotsBaromVisibWave heightAir tempDewpointWater temp
2015-May-18 02:29N 46°38' W 003°39'3 2.5
2015-May-18 01:17N 46°36' W 003°35'2 2.7
2015-May-18 00:28N 46°35' W 003°32'3 2.8
2015-May-17 23:28N 46°34' W 003°28'  
2015-May-12 04:19N 46°24' W 003°25'3 0.9
2015-May-12 01:30N 46°25' W 003°28'3 3.0
2015-May-12 00:33N 46°24' W 003°24'3 3.0
2015-May-11 23:30N 46°23' W 003°20'3 2.7
2015-May-11 22:32N 46°22' W 003°17'3 2.8
2015-May-11 21:33N 46°19' W 003°15'3 2.5
2015-May-11 20:31N 46°18' W 003°12'3 2.8
2015-May-11 19:33N 46°17' W 003°08'3 2.7
2015-May-11 18:33N 46°15' W 003°05'3 2.8
2015-May-11 17:33N 46°13' W 003°03'7 0.9
2015-May-11 10:16N 46°16' W 003°11'7 2.4
2015-May-11 07:14N 46°24' W 003°14'12 2.6
2015-May-11 02:30N 46°29' W 003°30'3 1.7
2015-May-11 00:33N 46°26' W 003°30'  
Track history (hours):
 
Tides and Currents Weather Stations Pressure Air Temp Water Temp Dewpoint Dewpoint Depression Visibility Wind Speed Wind Dir Waves Ship Positions

Fisher Golf

Last reported at 2015-May-18 02:29 UTC. Time now 2015-May-26 13:48 UTC.
Position N 46°38' W 003°39'.
Warning: this ship's position is 8 days out of date.

Length 20 m.

Type: Fishing. MMSI: 228239000.

Date/timePositionNaut miles runAvg speedWind from/ knotsBaromVisibWave heightAir tempDewpointWater temp
2015-May-18 02:29N 46°38' W 003°39'3 2.5
2015-May-18 01:17N 46°36' W 003°35'2 2.7
2015-May-18 00:28N 46°35' W 003°32'3 2.8
2015-May-17 23:28N 46°34' W 003°28'  
2015-May-12 04:19N 46°24' W 003°25'3 0.9
2015-May-12 01:30N 46°25' W 003°28'3 3.0
2015-May-12 00:33N 46°24' W 003°24'3 3.0
2015-May-11 23:30N 46°23' W 003°20'3 2.7
2015-May-11 22:32N 46°22' W 003°17'3 2.8
2015-May-11 21:33N 46°19' W 003°15'3 2.5
2015-May-11 20:31N 46°18' W 003°12'3 2.8
2015-May-11 19:33N 46°17' W 003°08'3 2.7
2015-May-11 18:33N 46°15' W 003°05'3 2.8
2015-May-11 17:33N 46°13' W 003°03'7 0.9
2015-May-11 10:16N 46°16' W 003°11'7 2.4
2015-May-11 07:14N 46°24' W 003°14'12 2.6
2015-May-11 02:30N 46°29' W 003°30'3 1.7
2015-May-11 00:33N 46°26' W 003°30'  

Dump ship's entire track history